createdAt,value
2023-02-13T00:01:06.871Z,16.63
2023-02-13T00:03:34.611Z,18.00
2023-02-13T00:06:02.178Z,16.08
2023-02-13T00:08:29.887Z,15.68
2023-02-13T00:10:58.586Z,14.68
2023-02-13T00:13:26.450Z,15.85
2023-02-13T00:16:02.275Z,11.35
2023-02-13T00:18:33.360Z,13.38
2023-02-13T00:21:04.641Z,14.55
2023-02-13T00:23:33.920Z,14.85
2023-02-13T00:26:06.038Z,13.88
2023-02-13T00:28:34.308Z,12.00
2023-02-13T00:33:25.421Z,15.32
2023-02-13T00:36:01.820Z,12.85
2023-02-13T00:38:31.096Z,14.90
2023-02-13T00:40:59.036Z,13.43
2023-02-13T00:43:26.999Z,15.00
2023-02-13T00:45:54.676Z,11.65
2023-02-13T00:48:26.526Z,10.63
2023-02-13T00:50:55.142Z,11.10
2023-02-13T00:53:24.996Z,11.48
2023-02-13T00:55:53.108Z,11.57
2023-02-13T00:58:21.261Z,10.98
2023-02-13T01:00:49.123Z,12.90
2023-02-13T01:03:17.351Z,12.82
2023-02-13T01:05:47.435Z,10.38
2023-02-13T01:08:17.553Z,11.15
2023-02-13T01:10:47.056Z,10.27
2023-02-13T01:13:16.445Z,10.77
2023-02-13T01:15:44.872Z,11.10
2023-02-13T01:18:17.642Z,10.18
2023-02-13T01:20:46.012Z,12.25
2023-02-13T01:23:14.077Z,10.70
2023-02-13T01:25:44.762Z,9.75
2023-02-13T01:28:12.505Z,10.80
2023-02-13T01:30:40.375Z,11.27
2023-02-13T01:33:10.086Z,10.48
2023-02-13T01:35:40.945Z,9.75
2023-02-13T01:38:10.581Z,10.48
2023-02-13T01:40:48.771Z,9.32
2023-02-13T01:43:16.790Z,10.27
2023-02-13T01:48:18.446Z,11.25
2023-02-13T01:51:02.262Z,12.90
2023-02-13T01:53:36.239Z,10.38
2023-02-13T01:56:13.499Z,9.07
2023-02-13T01:58:44.996Z,10.15
2023-02-13T02:01:12.715Z,9.80
2023-02-13T02:03:56.849Z,9.27
2023-02-13T02:06:29.512Z,8.75
2023-02-13T02:09:03.143Z,9.73
2023-02-13T02:11:41.645Z,9.30
2023-02-13T02:14:09.657Z,7.55
2023-02-13T02:19:14.773Z,10.30
2023-02-13T02:21:57.290Z,8.85
2023-02-13T02:24:26.054Z,10.43
2023-02-13T02:27:20.303Z,7.65
2023-02-13T02:29:55.884Z,9.15
2023-02-13T02:32:32.715Z,7.50
2023-02-13T02:35:12.320Z,8.90
2023-02-13T02:38:05.010Z,8.70
2023-02-13T02:40:58.125Z,10.35
2023-02-13T02:43:52.182Z,8.32
2023-02-13T02:46:22.554Z,9.00
2023-02-13T02:49:15.591Z,8.45
2023-02-13T02:51:43.375Z,9.02
2023-02-13T02:54:46.767Z,8.60
2023-02-13T02:57:21.715Z,7.18
2023-02-13T03:00:17.236Z,8.15
2023-02-13T03:03:03.718Z,8.90
2023-02-13T03:05:53.819Z,10.38
2023-02-13T03:08:41.658Z,8.18
2023-02-13T03:11:28.574Z,11.32
2023-02-13T03:14:00.408Z,10.98
2023-02-13T03:16:47.010Z,11.00
2023-02-13T03:19:46.940Z,8.95
2023-02-13T03:22:56.327Z,10.52
2023-02-13T03:25:36.723Z,10.60
2023-02-13T03:28:31.109Z,11.10
2023-02-13T03:31:20.662Z,12.38
2023-02-13T03:33:48.664Z,10.77
2023-02-13T03:37:07.415Z,12.88
2023-02-13T03:39:44.147Z,12.80
2023-02-13T03:42:37.658Z,13.20
2023-02-13T03:45:33.481Z,11.95
2023-02-13T03:48:10.052Z,12.90
2023-02-13T03:50:43.415Z,13.32
2023-02-13T03:53:13.845Z,13.45
2023-02-13T03:56:03.934Z,13.43
2023-02-13T03:59:05.347Z,14.40
2023-02-13T04:01:35.964Z,15.32
2023-02-13T04:04:17.585Z,15.00
2023-02-13T04:06:58.406Z,16.48
2023-02-13T04:09:29.466Z,17.20
2023-02-13T04:12:05.987Z,15.85
2023-02-13T04:15:01.402Z,14.00
2023-02-13T04:17:36.629Z,16.63
2023-02-13T04:20:05.683Z,14.40
2023-02-13T04:22:33.800Z,15.90
2023-02-13T04:25:01.608Z,16.55
2023-02-13T04:27:30.045Z,19.92
2023-02-13T04:29:57.575Z,17.75
2023-02-13T04:32:25.292Z,18.50
2023-02-13T04:34:52.887Z,18.00
2023-02-13T04:37:20.463Z,16.95
2023-02-13T04:39:48.528Z,14.32
2023-02-13T04:42:16.289Z,15.20
2023-02-13T04:44:44.104Z,15.32
2023-02-13T04:47:11.829Z,16.58
2023-02-13T04:49:40.004Z,16.00
2023-02-13T04:54:35.254Z,17.55
2023-02-13T04:57:02.880Z,20.27
2023-02-13T04:59:30.641Z,18.60
2023-02-13T05:01:59.364Z,16.02
2023-02-13T05:04:29.005Z,21.25
2023-02-13T05:06:57.047Z,20.05
2023-02-13T05:09:24.668Z,14.32
2023-02-13T05:11:53.657Z,18.92
2023-02-13T05:14:21.374Z,17.00
2023-02-13T05:16:49.852Z,17.45
2023-02-13T05:19:17.691Z,17.48
2023-02-13T05:22:03.824Z,21.17
2023-02-13T05:24:31.662Z,23.45
2023-02-13T05:26:59.276Z,18.25
2023-02-13T05:29:27.543Z,22.05
2023-02-13T05:31:57.512Z,21.67
2023-02-13T05:34:26.810Z,20.73
2023-02-13T05:36:55.275Z,17.90
2023-02-13T05:39:23.128Z,20.67
2023-02-13T05:41:50.843Z,18.08
2023-02-13T05:44:18.569Z,24.27
2023-02-13T05:46:46.322Z,20.63
2023-02-13T05:49:15.826Z,23.15
2023-02-13T05:51:46.494Z,17.85
2023-02-13T05:54:14.557Z,19.00
2023-02-13T05:56:42.171Z,22.30
2023-02-13T05:59:10.212Z,24.75
2023-02-13T06:04:05.664Z,22.17
2023-02-13T06:06:33.716Z,22.17
2023-02-13T06:09:01.258Z,22.10
2023-02-13T06:11:29.525Z,21.98
2023-02-13T06:13:57.906Z,23.45
2023-02-13T06:16:25.703Z,24.35
2023-02-13T06:18:53.790Z,26.33
2023-02-13T06:21:22.623Z,26.38
2023-02-13T06:23:50.614Z,23.45
2023-02-13T06:26:18.916Z,22.30
2023-02-13T06:31:14.191Z,24.10
2023-02-13T06:33:42.308Z,21.65
2023-02-13T06:36:10.314Z,21.58
2023-02-13T06:38:38.047Z,19.73
2023-02-13T06:41:05.701Z,24.42
2023-02-13T06:43:33.632Z,20.75
2023-02-13T06:46:05.657Z,19.48
2023-02-13T06:48:33.429Z,26.73
2023-02-13T06:51:04.264Z,28.92
2023-02-13T06:53:31.901Z,25.50
2023-02-13T06:55:59.531Z,24.25
2023-02-13T06:58:27.500Z,27.75
2023-02-13T07:00:55.443Z,25.40
2023-02-13T07:08:19.764Z,23.30
2023-02-13T07:10:47.480Z,20.15
2023-02-13T07:13:15.400Z,30.00
2023-02-13T07:15:42.966Z,26.65
2023-02-13T07:18:10.612Z,25.38
2023-02-13T07:20:38.625Z,23.58
2023-02-13T07:23:07.829Z,26.73
2023-02-13T07:25:35.607Z,26.05
2023-02-13T07:28:07.213Z,26.38
2023-02-13T07:30:35.688Z,26.85
2023-02-13T07:33:04.960Z,25.77
2023-02-13T07:35:33.235Z,28.25
2023-02-13T07:38:01.052Z,32.22
2023-02-13T07:40:28.717Z,30.83
2023-02-13T07:42:56.921Z,24.25
2023-02-13T07:45:24.687Z,27.15
2023-02-13T07:47:54.724Z,27.35
2023-02-13T07:50:22.687Z,26.50
2023-02-13T07:57:57.102Z,23.33
2023-02-13T08:02:53.421Z,26.50
2023-02-13T08:05:21.005Z,29.38
2023-02-13T08:07:48.633Z,29.08
2023-02-13T08:10:34.870Z,29.10
2023-02-13T08:13:03.088Z,27.80
2023-02-13T08:17:58.319Z,31.15
2023-02-13T08:20:26.126Z,24.73
2023-02-13T08:22:53.928Z,26.50
2023-02-13T08:25:21.711Z,29.70
2023-02-13T08:27:50.207Z,30.27
2023-02-13T08:30:19.325Z,29.63
2023-02-13T08:32:54.107Z,30.77
2023-02-13T08:35:22.956Z,29.48
2023-02-13T08:37:50.717Z,19.58
2023-02-13T08:40:18.406Z,31.70
2023-02-13T08:42:46.052Z,27.13
2023-02-13T08:45:13.856Z,35.00
2023-02-13T08:47:41.525Z,27.27
2023-02-13T08:50:09.452Z,31.52
2023-02-13T08:52:37.109Z,30.42
2023-02-13T08:55:05.091Z,27.17
2023-02-13T08:57:32.645Z,32.92
2023-02-13T09:00:00.304Z,29.05
2023-02-13T09:02:28.301Z,30.70
2023-02-13T09:04:55.952Z,32.72
2023-02-13T09:07:24.460Z,29.92
2023-02-13T09:09:52.369Z,29.90
2023-02-13T09:12:20.036Z,29.13
2023-02-13T09:14:48.304Z,29.92
2023-02-13T09:17:18.458Z,32.20
2023-02-13T09:19:47.104Z,28.27
2023-02-13T09:22:17.304Z,29.63
2023-02-13T09:24:45.287Z,30.98
2023-02-13T09:27:12.879Z,30.15
2023-02-13T09:29:40.580Z,28.58
2023-02-13T09:32:08.347Z,29.55
2023-02-13T09:34:36.183Z,30.20
2023-02-13T09:37:03.826Z,27.13
2023-02-13T09:39:31.491Z,28.02
2023-02-13T09:42:01.036Z,30.45
2023-02-13T09:44:49.038Z,26.48
2023-02-13T09:47:21.689Z,28.20
2023-02-13T09:50:00.733Z,31.23
2023-02-13T09:52:36.553Z,29.58
2023-02-13T09:55:37.412Z,29.27
2023-02-13T09:58:42.693Z,29.30
2023-02-13T10:01:22.711Z,29.65
2023-02-13T10:04:18.082Z,28.88
2023-02-13T10:06:50.541Z,26.85
2023-02-13T10:09:32.644Z,32.40
2023-02-13T10:12:24.969Z,27.05
2023-02-13T10:15:15.857Z,25.83
2023-02-13T10:17:46.830Z,29.13
2023-02-13T10:20:47.194Z,27.83
2023-02-13T10:23:35.561Z,29.70
2023-02-13T10:26:07.235Z,22.38
2023-02-13T10:28:42.429Z,27.52
2023-02-13T10:31:16.359Z,25.05
2023-02-13T10:33:51.078Z,29.63
2023-02-13T10:36:26.654Z,29.70
2023-02-13T10:39:02.117Z,29.38
2023-02-13T10:41:43.004Z,25.15
2023-02-13T10:44:29.730Z,27.00
2023-02-13T10:47:25.646Z,27.23
2023-02-13T10:50:14.562Z,26.52
2023-02-13T10:52:57.210Z,28.17
2023-02-13T10:55:28.094Z,28.58
2023-02-13T10:58:12.810Z,28.17
2023-02-13T11:01:05.274Z,29.77
2023-02-13T11:03:33.394Z,35.95
2023-02-13T11:06:09.257Z,24.92
2023-02-13T11:08:46.035Z,35.88
2023-02-13T11:11:38.063Z,24.27
2023-02-13T11:14:17.676Z,31.50
2023-02-13T11:16:59.571Z,26.45
2023-02-13T11:19:37.550Z,35.30
2023-02-13T11:24:36.744Z,30.13
2023-02-13T11:27:09.470Z,34.60
2023-02-13T11:29:50.645Z,28.52
2023-02-13T11:32:26.952Z,29.63
2023-02-13T11:34:55.701Z,29.88
2023-02-13T11:37:29.356Z,29.10
2023-02-13T11:39:59.798Z,25.52
2023-02-13T11:42:35.065Z,33.35
2023-02-13T11:45:24.614Z,27.20
2023-02-13T11:47:54.438Z,28.75
2023-02-13T11:50:36.233Z,31.52
2023-02-13T11:53:17.004Z,27.52
2023-02-13T11:56:00.390Z,31.15
2023-02-13T11:58:30.857Z,31.10
2023-02-13T12:01:20.353Z,25.50
2023-02-13T12:04:18.374Z,27.85
2023-02-13T12:07:05.207Z,31.88
2023-02-13T12:09:33.013Z,26.73
2023-02-13T12:12:04.936Z,28.50
2023-02-13T12:14:39.920Z,35.58
2023-02-13T12:17:19.035Z,32.35
2023-02-13T12:19:55.694Z,30.42
2023-02-13T12:22:46.203Z,30.83
2023-02-13T12:25:22.861Z,23.73
2023-02-13T12:28:11.908Z,29.60
2023-02-13T12:31:01.530Z,27.88
2023-02-13T12:34:11.756Z,31.73
2023-02-13T12:36:45.000Z,30.75
2023-02-13T12:39:35.128Z,27.25
2023-02-13T12:42:14.667Z,27.15
2023-02-13T12:45:08.304Z,31.70
2023-02-13T12:48:00.122Z,31.65
2023-02-13T12:50:54.160Z,29.92
2023-02-13T12:53:59.422Z,26.00
2023-02-13T12:56:44.178Z,26.60
2023-02-13T12:59:36.560Z,22.25
2023-02-13T13:02:34.884Z,25.88
2023-02-13T13:05:15.369Z,30.15
2023-02-13T13:08:13.794Z,30.10
2023-02-13T13:10:53.641Z,30.67
2023-02-13T13:13:46.191Z,28.95
2023-02-13T13:16:35.039Z,29.30
2023-02-13T13:19:05.459Z,30.67
2023-02-13T13:21:51.613Z,29.42
2023-02-13T13:24:30.691Z,29.50
2023-02-13T13:27:00.469Z,26.75
2023-02-13T13:29:49.312Z,33.63
2023-02-13T13:32:22.880Z,27.73
2023-02-13T13:34:51.229Z,31.10
2023-02-13T13:40:27.835Z,34.00
2023-02-13T13:43:06.941Z,30.00
2023-02-13T13:45:39.050Z,30.02
2023-02-13T13:48:06.626Z,31.45
2023-02-13T13:50:39.139Z,34.22
2023-02-13T13:53:11.583Z,31.05
2023-02-13T13:55:56.301Z,35.47
2023-02-13T13:58:44.381Z,33.55
2023-02-13T14:01:18.160Z,31.67
2023-02-13T14:03:57.090Z,32.90
2023-02-13T14:06:26.273Z,35.50
2023-02-13T14:08:57.415Z,35.60
2023-02-13T14:11:34.038Z,35.17
2023-02-13T14:14:03.284Z,28.40
2023-02-13T14:16:45.975Z,29.80
2023-02-13T14:19:33.765Z,30.30
2023-02-13T14:25:03.852Z,35.05
2023-02-13T14:27:38.975Z,39.35
2023-02-13T14:30:28.532Z,29.25
2023-02-13T14:32:57.436Z,30.60
2023-02-13T14:35:28.642Z,35.40
2023-02-13T14:37:59.328Z,33.22
2023-02-13T14:40:48.978Z,33.50
2023-02-13T14:43:42.445Z,33.58
2023-02-13T14:46:38.313Z,31.13
2023-02-13T14:49:13.731Z,30.40
2023-02-13T14:51:55.728Z,32.55
2023-02-13T14:54:42.644Z,32.80
2023-02-13T14:57:28.022Z,27.47
2023-02-13T15:00:20.639Z,29.38
2023-02-13T15:02:54.186Z,28.77
2023-02-13T15:05:26.719Z,30.30
2023-02-13T15:08:05.459Z,31.70
2023-02-13T15:10:47.649Z,31.75
2023-02-13T15:13:37.426Z,30.70
2023-02-13T15:16:09.220Z,32.15
2023-02-13T15:18:52.629Z,32.50
2023-02-13T15:21:24.412Z,30.10
2023-02-13T15:23:56.990Z,26.40
2023-02-13T15:26:28.814Z,31.88
2023-02-13T15:29:25.787Z,30.08
2023-02-13T15:31:56.009Z,31.08
2023-02-13T15:34:34.740Z,30.23
2023-02-13T15:37:03.133Z,35.47
2023-02-13T15:39:31.941Z,33.50
2023-02-13T15:42:02.632Z,29.48
2023-02-13T15:44:37.214Z,31.98
2023-02-13T15:47:17.562Z,32.88
2023-02-13T15:49:47.704Z,33.03
2023-02-13T15:52:20.256Z,34.83
2023-02-13T15:54:53.595Z,33.88
2023-02-13T15:57:23.644Z,31.65
2023-02-13T15:59:53.172Z,34.20
2023-02-13T16:02:28.314Z,33.47
2023-02-13T16:04:56.904Z,31.05
2023-02-13T16:09:52.584Z,35.72
2023-02-13T16:14:59.985Z,33.13
2023-02-13T16:17:31.170Z,40.00
2023-02-13T16:20:03.086Z,34.75
2023-02-13T16:22:50.845Z,32.88
2023-02-13T16:27:51.872Z,36.65
2023-02-13T16:30:33.387Z,33.17
2023-02-13T16:33:29.583Z,35.17
2023-02-13T16:36:17.308Z,37.45
2023-02-13T16:38:49.855Z,39.78
2023-02-13T16:41:17.648Z,37.95
2023-02-13T16:44:20.900Z,41.78
2023-02-13T16:46:53.420Z,37.53
2023-02-13T16:49:24.604Z,38.38
2023-02-13T16:52:26.849Z,38.08
2023-02-13T16:55:00.588Z,41.65
2023-02-13T16:57:33.067Z,38.97
2023-02-13T17:00:17.254Z,36.70
2023-02-13T17:02:46.829Z,38.50
2023-02-13T17:05:27.254Z,40.83
2023-02-13T17:07:58.066Z,41.97
2023-02-13T17:10:36.187Z,42.15
2023-02-13T17:13:11.617Z,45.95
2023-02-13T17:15:44.970Z,43.90
2023-02-13T17:18:12.886Z,40.65
2023-02-13T17:20:46.777Z,42.40
2023-02-13T17:23:23.596Z,42.58
2023-02-13T17:25:53.726Z,46.33
2023-02-13T17:28:30.401Z,48.10
2023-02-13T17:30:59.824Z,47.58
2023-02-13T17:33:29.971Z,48.58
2023-02-13T17:35:58.137Z,47.03
2023-02-13T17:38:26.001Z,35.30
2023-02-13T17:40:53.802Z,45.20
2023-02-13T17:43:21.770Z,49.70
2023-02-13T17:45:50.340Z,47.55
2023-02-13T17:48:18.078Z,44.40
2023-02-13T17:50:46.120Z,50.72
2023-02-13T17:53:26.453Z,43.88
2023-02-13T17:55:54.022Z,47.00
2023-02-13T17:58:21.672Z,49.55
2023-02-13T18:00:49.801Z,48.65
2023-02-13T18:05:48.647Z,50.05
2023-02-13T18:08:16.741Z,51.75
2023-02-13T18:10:44.336Z,53.67
2023-02-13T18:13:11.881Z,51.60
2023-02-13T18:15:42.642Z,47.88
2023-02-13T18:18:13.465Z,53.00
2023-02-13T18:20:41.548Z,50.25
2023-02-13T18:23:09.569Z,53.30
2023-02-13T18:28:04.668Z,57.30
2023-02-13T18:30:32.264Z,57.40
2023-02-13T18:33:00.217Z,61.72
2023-02-13T18:35:28.033Z,61.22
2023-02-13T18:40:23.689Z,62.00
2023-02-13T18:42:52.501Z,61.88
2023-02-13T18:45:20.323Z,57.83
2023-02-13T18:47:47.882Z,54.08
2023-02-13T18:50:15.551Z,52.58
2023-02-13T18:52:43.978Z,59.08
2023-02-13T18:55:11.499Z,61.60
2023-02-13T18:57:43.568Z,54.95
2023-02-13T19:00:14.414Z,58.35
2023-02-13T19:02:42.417Z,62.97
2023-02-13T19:05:10.659Z,52.65
2023-02-13T19:10:07.064Z,63.58
2023-02-13T19:12:35.114Z,58.15
2023-02-13T19:15:02.659Z,59.03
2023-02-13T19:17:30.213Z,63.08
2023-02-13T19:19:58.086Z,63.10
2023-02-13T19:24:53.803Z,58.47
2023-02-13T19:27:21.490Z,60.90
2023-02-13T19:29:49.356Z,54.38
2023-02-13T19:32:16.963Z,64.68
2023-02-13T19:34:44.613Z,67.38
2023-02-13T19:37:12.452Z,57.63
2023-02-13T19:42:07.795Z,62.97
2023-02-13T19:44:35.384Z,57.08
2023-02-13T19:47:02.944Z,64.75
2023-02-13T19:49:30.499Z,57.92
2023-02-13T19:51:58.210Z,62.58
2023-02-13T19:54:26.148Z,58.53
2023-02-13T19:56:59.646Z,61.40
2023-02-13T19:59:28.068Z,65.50
2023-02-13T20:01:55.786Z,59.17
2023-02-13T20:04:23.487Z,59.97
2023-02-13T20:06:57.533Z,61.65
2023-02-13T20:09:25.365Z,65.18
2023-02-13T20:11:53.179Z,63.95
2023-02-13T20:14:20.903Z,64.32
2023-02-13T20:16:48.872Z,64.55
2023-02-13T20:19:16.509Z,64.65
2023-02-13T20:21:44.319Z,76.50
2023-02-13T20:26:40.822Z,66.38
2023-02-13T20:29:09.210Z,71.18
2023-02-13T20:31:39.588Z,61.15
2023-02-13T20:34:07.807Z,67.45
2023-02-13T20:36:35.473Z,65.60
2023-02-13T20:39:05.941Z,66.43
2023-02-13T20:41:35.472Z,69.07
2023-02-13T20:44:06.904Z,69.40
2023-02-13T20:46:39.545Z,71.30
2023-02-13T20:49:07.789Z,71.50
2023-02-13T20:51:35.850Z,67.35
2023-02-13T20:56:31.880Z,69.03
2023-02-13T20:59:00.620Z,91.60
2023-02-13T21:01:33.048Z,73.38
2023-02-13T21:04:01.117Z,75.40
2023-02-13T21:06:38.779Z,68.32
2023-02-13T21:09:08.998Z,73.75
2023-02-13T21:11:38.268Z,73.20
2023-02-13T21:14:06.391Z,64.13
2023-02-13T21:16:36.701Z,62.47
2023-02-13T21:19:08.289Z,64.90
2023-02-13T21:21:37.302Z,65.28
2023-02-13T21:24:08.592Z,65.13
2023-02-13T21:26:36.883Z,66.35
2023-02-13T21:31:40.653Z,67.35
2023-02-13T21:34:10.400Z,60.13
2023-02-13T21:36:39.117Z,61.67
2023-02-13T21:39:09.408Z,70.00
2023-02-13T21:41:40.035Z,73.90
2023-02-13T21:44:07.841Z,71.55
2023-02-13T21:46:36.338Z,62.65
2023-02-13T21:49:06.213Z,56.95
2023-02-13T21:51:36.205Z,55.45
2023-02-13T21:54:05.225Z,60.05
2023-02-13T21:56:35.407Z,64.33
2023-02-13T21:59:04.180Z,69.38
2023-02-13T22:01:47.092Z,87.33
2023-02-13T22:04:15.440Z,83.13
2023-02-13T22:06:43.453Z,91.50
2023-02-13T22:11:40.495Z,90.28
2023-02-13T22:14:12.100Z,81.63
2023-02-13T22:16:40.367Z,85.55
2023-02-13T22:19:08.918Z,86.38
2023-02-13T22:21:36.756Z,84.68
2023-02-13T22:24:04.650Z,76.15
2023-02-13T22:26:37.288Z,76.53
2023-02-13T22:29:07.566Z,74.40
2023-02-13T22:31:35.914Z,80.60
2023-02-13T22:34:05.686Z,78.25
2023-02-13T22:36:35.433Z,70.15
2023-02-13T22:39:03.148Z,68.18
2023-02-13T22:41:30.936Z,72.15
2023-02-13T22:43:59.195Z,68.18
2023-02-13T22:46:29.786Z,69.45
2023-02-13T22:48:58.850Z,192.27
2023-02-13T22:51:29.039Z,68.82
2023-02-13T22:53:58.040Z,61.67
2023-02-13T22:56:27.430Z,67.82
2023-02-13T22:58:57.642Z,70.60
2023-02-13T23:01:28.185Z,82.15
2023-02-13T23:03:56.319Z,92.38
2023-02-13T23:06:24.833Z,75.70
2023-02-13T23:08:53.690Z,87.75
2023-02-13T23:11:42.736Z,76.88
2023-02-13T23:14:11.722Z,79.28
2023-02-13T23:16:59.514Z,84.25
2023-02-13T23:21:57.185Z,79.35
2023-02-13T23:24:24.793Z,79.00
2023-02-13T23:26:52.524Z,84.15
2023-02-13T23:29:20.669Z,85.10
2023-02-13T23:31:48.536Z,74.53
2023-02-13T23:34:16.419Z,80.88
2023-02-13T23:36:44.308Z,77.75
2023-02-13T23:39:12.386Z,80.82
2023-02-13T23:41:39.853Z,85.53
2023-02-13T23:44:07.615Z,85.28
2023-02-13T23:46:35.745Z,81.88
2023-02-13T23:49:03.361Z,89.95
2023-02-13T23:51:31.192Z,88.00
2023-02-13T23:54:00.492Z,81.60
2023-02-13T23:56:28.379Z,86.45
2023-02-13T23:58:56.852Z,82.18
